createdAt,value
2016-09-03T00:00:24.248Z,91.64
2016-09-03T00:02:16.917Z,91.62
2016-09-03T00:02:33.655Z,91.55
2016-09-03T00:03:50.003Z,91.59
2016-09-03T00:04:33.563Z,91.52
2016-09-03T00:05:38.539Z,91.85
2016-09-03T00:06:39.685Z,92.14
2016-09-03T00:07:32.415Z,92.22
2016-09-03T00:08:28.489Z,92.25
2016-09-03T00:09:34.565Z,92.14
2016-09-03T00:10:33.495Z,91.99
2016-09-03T00:11:25.281Z,92.16
2016-09-03T00:12:38.768Z,92.10
2016-09-03T00:13:26.326Z,92.25
2016-09-03T00:14:21.507Z,92.19
2016-09-03T00:15:35.038Z,92.09
2016-09-03T00:16:28.225Z,92.09
2016-09-03T00:17:20.727Z,92.14
2016-09-03T00:18:28.928Z,92.10
2016-09-03T00:19:34.039Z,92.16
2016-09-03T00:20:26.548Z,92.36
2016-09-03T00:21:23.533Z,92.36
2016-09-03T00:22:56.499Z,92.50
2016-09-03T00:23:25.615Z,92.74
2016-09-03T00:24:29.169Z,92.63
2016-09-03T00:25:29.786Z,92.84
2016-09-03T00:26:43.788Z,92.60
2016-09-03T00:27:33.904Z,92.82
2016-09-03T00:28:34.887Z,93.09
2016-09-03T00:29:23.614Z,93.11
2016-09-03T00:30:31.886Z,92.77
2016-09-03T00:32:01.149Z,92.54
2016-09-03T00:32:33.744Z,92.83
2016-09-03T00:33:32.461Z,92.57
2016-09-03T00:34:34.165Z,92.50
2016-09-03T00:35:32.959Z,92.50
2016-09-03T00:36:32.171Z,92.47
2016-09-03T00:37:32.911Z,92.46
2016-09-03T00:38:28.918Z,92.58
2016-09-03T00:39:28.297Z,92.72
2016-09-03T00:40:33.458Z,92.62
2016-09-03T00:41:35.160Z,92.49
2016-09-03T00:42:33.412Z,92.46
2016-09-03T00:43:33.239Z,92.47
2016-09-03T00:44:31.176Z,92.36
2016-09-03T00:45:24.785Z,92.26
2016-09-03T00:46:19.563Z,92.15
2016-09-03T00:47:38.858Z,91.93
2016-09-03T00:48:26.582Z,92.09
2016-09-03T00:50:33.424Z,91.85
2016-09-03T00:51:28.188Z,91.97
2016-09-03T00:52:36.851Z,92.12
2016-09-03T00:53:28.600Z,92.02
2016-09-03T00:54:38.577Z,92.10
2016-09-03T00:55:40.158Z,92.57
2016-09-03T00:56:39.554Z,92.37
2016-09-03T00:57:25.159Z,92.30
2016-09-03T00:58:39.232Z,92.36
2016-09-03T00:59:34.372Z,92.17
2016-09-03T01:00:29.511Z,92.02
2016-09-03T01:01:30.554Z,92.23
2016-09-03T01:02:32.772Z,92.09
2016-09-03T01:03:30.374Z,92.23
2016-09-03T01:04:33.308Z,92.34
2016-09-03T01:05:34.388Z,92.30
2016-09-03T01:06:29.157Z,92.38
2016-09-03T01:07:30.343Z,92.37
2016-09-03T01:08:26.258Z,92.30
2016-09-03T01:09:32.781Z,92.24
2016-09-03T01:10:23.724Z,92.17
2016-09-03T01:11:25.370Z,92.20
2016-09-03T01:12:26.879Z,92.25
2016-09-03T01:13:24.039Z,92.28
2016-09-03T01:14:32.259Z,92.37
2016-09-03T01:15:31.111Z,92.41
2016-09-03T01:16:23.079Z,92.64
2016-09-03T01:17:33.263Z,92.53
2016-09-03T01:18:28.489Z,92.31
2016-09-03T01:19:24.504Z,92.47
2016-09-03T01:20:32.749Z,92.59
2016-09-03T01:21:33.918Z,92.48
2016-09-03T01:22:31.052Z,92.50
2016-09-03T01:23:35.082Z,92.52
2016-09-03T01:24:24.180Z,92.62
2016-09-03T01:25:32.542Z,92.61
2016-09-03T01:26:25.391Z,92.83
2016-09-03T01:27:38.824Z,92.70
2016-09-03T01:28:37.437Z,92.63
2016-09-03T01:29:33.571Z,92.46
2016-09-03T01:30:29.965Z,92.40
2016-09-03T01:31:24.843Z,92.56
2016-09-03T01:32:24.921Z,92.85
2016-09-03T01:33:38.139Z,92.80
2016-09-03T01:34:39.168Z,92.50
2016-09-03T01:35:19.388Z,92.50
2016-09-03T01:36:27.394Z,92.69
2016-09-03T01:37:24.738Z,92.67
2016-09-03T01:38:46.364Z,92.40
2016-09-03T01:39:33.954Z,92.39
2016-09-03T01:40:27.421Z,92.37
2016-09-03T01:41:33.173Z,92.49
2016-09-03T01:42:26.962Z,92.41
2016-09-03T01:43:38.411Z,92.29
2016-09-03T01:44:34.041Z,92.23
2016-09-03T01:45:28.280Z,92.35
2016-09-03T01:46:32.914Z,92.52
2016-09-03T01:47:30.045Z,92.31
2016-09-03T01:48:26.784Z,92.64
2016-09-03T01:49:37.713Z,92.57
2016-09-03T01:50:23.969Z,92.33
2016-09-03T01:52:15.951Z,92.52
2016-09-03T01:52:27.479Z,92.49
2016-09-03T01:53:25.324Z,92.55
2016-09-03T01:54:33.213Z,92.48
2016-09-03T01:55:28.313Z,92.79
2016-09-03T01:56:28.511Z,92.54
2016-09-03T01:57:37.449Z,92.42
2016-09-03T01:58:29.702Z,92.56
2016-09-03T01:59:33.537Z,92.47
2016-09-03T02:00:25.604Z,92.73
2016-09-03T02:01:28.687Z,92.87
2016-09-03T02:02:27.254Z,93.00
2016-09-03T02:03:31.863Z,93.17
2016-09-03T02:04:26.095Z,93.09
2016-09-03T02:05:34.911Z,93.35
2016-09-03T02:06:39.872Z,93.30
2016-09-03T02:07:38.472Z,93.24
2016-09-03T02:08:34.080Z,93.23
2016-09-03T02:09:40.230Z,93.86
2016-09-03T02:10:29.702Z,93.86
2016-09-03T02:11:25.717Z,93.78
2016-09-03T02:12:38.536Z,93.78
2016-09-03T02:13:33.937Z,93.61
2016-09-03T02:14:25.689Z,93.88
2016-09-03T02:15:26.898Z,93.79
2016-09-03T02:16:32.000Z,93.76
2016-09-03T02:17:33.503Z,93.54
2016-09-03T02:18:32.566Z,93.60
2016-09-03T02:19:24.152Z,93.83
2016-09-03T02:20:33.377Z,93.68
2016-09-03T02:21:33.684Z,93.75
2016-09-03T02:22:33.576Z,93.60
2016-09-03T02:23:37.977Z,93.73
2016-09-03T02:24:24.443Z,93.58
2016-09-03T02:25:32.817Z,93.77
2016-09-03T02:26:44.406Z,94.05
2016-09-03T02:27:33.961Z,94.10
2016-09-03T02:28:38.865Z,94.15
2016-09-03T02:29:34.726Z,94.02
2016-09-03T02:30:24.456Z,94.00
2016-09-03T02:31:29.112Z,93.75
2016-09-03T02:32:32.289Z,93.45
2016-09-03T02:33:29.038Z,93.39
2016-09-03T02:34:25.775Z,93.59
2016-09-03T02:35:32.391Z,93.43
2016-09-03T02:36:38.217Z,93.62
2016-09-03T02:37:33.310Z,93.28
2016-09-03T02:38:31.478Z,93.14
2016-09-03T02:39:25.534Z,93.08
2016-09-03T02:40:39.887Z,93.29
2016-09-03T02:42:09.364Z,93.21
2016-09-03T02:42:26.326Z,93.12
2016-09-03T02:43:33.557Z,92.95
2016-09-03T02:44:33.859Z,92.83
2016-09-03T02:45:32.594Z,92.82
2016-09-03T02:46:41.705Z,92.89
2016-09-03T02:47:28.407Z,92.81
2016-09-03T02:48:38.240Z,93.35
2016-09-03T02:49:28.211Z,93.40
2016-09-03T02:50:30.404Z,93.22
2016-09-03T02:52:01.837Z,93.20
2016-09-03T02:52:24.176Z,93.05
2016-09-03T02:53:32.708Z,92.88
2016-09-03T02:54:38.393Z,92.87
2016-09-03T02:55:34.353Z,92.78
2016-09-03T02:56:28.492Z,92.72
2016-09-03T02:57:32.137Z,92.75
2016-09-03T02:58:32.956Z,92.73
2016-09-03T02:59:29.057Z,92.63
2016-09-03T03:00:29.894Z,92.60
2016-09-03T03:01:33.012Z,92.87
2016-09-03T03:02:27.801Z,93.03
2016-09-03T03:03:33.959Z,93.29
2016-09-03T03:04:33.860Z,93.24
2016-09-03T03:05:33.910Z,93.35
2016-09-03T03:06:31.663Z,93.10
2016-09-03T03:07:28.297Z,92.95
2016-09-03T03:08:33.822Z,92.95
2016-09-03T03:09:28.749Z,92.99
2016-09-03T03:10:40.067Z,92.78
2016-09-03T03:11:28.164Z,92.78
2016-09-03T03:12:28.492Z,92.88
2016-09-03T03:13:29.318Z,92.85
2016-09-03T03:14:38.714Z,92.69
2016-09-03T03:15:24.467Z,92.97
2016-09-03T03:16:34.134Z,93.29
2016-09-03T03:17:30.349Z,93.03
2016-09-03T03:18:27.969Z,92.95
2016-09-03T03:19:28.573Z,93.04
2016-09-03T03:20:31.007Z,93.20
2016-09-03T03:21:24.730Z,93.17
2016-09-03T03:22:30.959Z,92.97
2016-09-03T03:23:44.138Z,92.92
2016-09-03T03:24:39.083Z,92.87
2016-09-03T03:25:23.952Z,92.96
2016-09-03T03:26:33.397Z,93.07
2016-09-03T03:27:34.027Z,93.17
2016-09-03T03:28:28.066Z,93.06
2016-09-03T03:29:29.170Z,93.03
2016-09-03T03:30:33.610Z,93.23
2016-09-03T03:31:30.620Z,93.34
2016-09-03T03:32:25.903Z,93.21
2016-09-03T03:33:20.571Z,93.44
2016-09-03T03:34:39.706Z,93.34
2016-09-03T03:35:39.574Z,93.37
2016-09-03T03:36:39.562Z,93.33
2016-09-03T03:37:29.665Z,93.37
2016-09-03T03:38:32.774Z,93.73
2016-09-03T03:39:40.417Z,93.73
2016-09-03T03:40:34.903Z,93.70
2016-09-03T03:41:28.950Z,93.67
2016-09-03T03:42:19.129Z,93.48
2016-09-03T03:43:29.739Z,93.57
2016-09-03T03:44:28.777Z,93.72
2016-09-03T03:45:34.245Z,93.91
2016-09-03T03:46:27.488Z,93.73
2016-09-03T03:47:26.690Z,94.09
2016-09-03T03:48:34.615Z,94.10
2016-09-03T03:49:34.329Z,94.17
2016-09-03T03:50:33.439Z,94.10
2016-09-03T03:51:32.574Z,94.10
2016-09-03T03:52:34.570Z,94.10
2016-09-03T03:53:45.185Z,94.17
2016-09-03T03:54:25.603Z,94.47
2016-09-03T03:55:34.307Z,94.58
2016-09-03T03:56:28.541Z,94.57
2016-09-03T03:57:38.790Z,94.87
2016-09-03T03:58:33.637Z,94.71
2016-09-03T03:59:28.606Z,94.49
2016-09-03T04:00:29.792Z,94.46
2016-09-03T04:01:29.357Z,94.49
2016-09-03T04:02:31.577Z,94.90
2016-09-03T04:03:30.225Z,94.82
2016-09-03T04:04:35.209Z,94.84
2016-09-03T04:05:39.262Z,94.68
2016-09-03T04:06:25.139Z,95.34
2016-09-03T04:07:24.208Z,95.54
2016-09-03T04:08:22.209Z,95.33
2016-09-03T04:09:33.683Z,95.28
2016-09-03T04:10:41.236Z,95.10
2016-09-03T04:11:26.024Z,95.68
2016-09-03T04:12:31.560Z,95.71
2016-09-03T04:13:38.836Z,95.83
2016-09-03T04:14:17.775Z,95.86
2016-09-03T04:15:24.226Z,95.37
2016-09-03T04:16:20.299Z,95.53
2016-09-03T04:17:38.651Z,95.55
2016-09-03T04:18:26.877Z,95.69
2016-09-03T04:19:34.429Z,95.80
2016-09-03T04:20:29.458Z,95.55
2016-09-03T04:21:31.878Z,95.77
2016-09-03T04:22:34.020Z,95.90
2016-09-03T04:23:23.558Z,95.78
2016-09-03T04:24:34.760Z,95.77
2016-09-03T04:25:29.114Z,95.87
2016-09-03T04:26:24.192Z,95.73
2016-09-03T04:27:33.816Z,96.05
2016-09-03T04:28:21.177Z,95.97
2016-09-03T04:29:34.986Z,95.83
2016-09-03T04:30:27.878Z,96.05
2016-09-03T04:31:25.575Z,96.19
2016-09-03T04:32:32.793Z,95.64
2016-09-03T04:33:28.597Z,95.69
2016-09-03T04:34:26.172Z,95.80
2016-09-03T04:35:25.285Z,95.78
2016-09-03T04:36:33.497Z,96.15
2016-09-03T04:37:30.812Z,96.10
2016-09-03T04:38:25.632Z,95.89
2016-09-03T04:39:35.149Z,95.96
2016-09-03T04:40:39.095Z,95.83
2016-09-03T04:41:34.598Z,95.78
2016-09-03T04:42:29.362Z,95.70
2016-09-03T04:43:34.092Z,95.63
2016-09-03T04:44:30.718Z,95.73
2016-09-03T04:45:29.446Z,96.02
2016-09-03T04:46:19.696Z,95.66
2016-09-03T04:48:28.122Z,95.64
2016-09-03T04:49:30.214Z,95.78
2016-09-03T04:50:25.675Z,95.90
2016-09-03T04:51:26.187Z,96.05
2016-09-03T04:52:29.053Z,96.34
2016-09-03T04:53:23.794Z,96.37
2016-09-03T04:54:18.634Z,96.14
2016-09-03T04:55:30.758Z,96.36
2016-09-03T04:56:33.888Z,97.01
2016-09-03T04:57:32.520Z,96.65
2016-09-03T04:58:30.918Z,96.74
2016-09-03T04:59:33.985Z,96.50
2016-09-03T05:00:39.537Z,96.50
2016-09-03T05:01:23.788Z,96.47
2016-09-03T05:02:31.901Z,96.47
2016-09-03T05:03:24.975Z,96.71
2016-09-03T05:04:28.615Z,96.63
2016-09-03T05:05:33.960Z,96.41
2016-09-03T05:06:29.992Z,96.79
2016-09-03T05:07:24.794Z,96.41
2016-09-03T05:08:38.576Z,96.53
2016-09-03T05:09:34.204Z,96.58
2016-09-03T05:10:31.092Z,96.30
2016-09-03T05:11:39.477Z,96.52
2016-09-03T05:12:32.961Z,96.19
2016-09-03T05:13:33.794Z,96.82
2016-09-03T05:14:25.309Z,96.49
2016-09-03T05:15:27.591Z,96.55
2016-09-03T05:16:32.012Z,96.68
2016-09-03T05:17:33.413Z,96.47
2016-09-03T05:18:40.575Z,96.51
2016-09-03T05:19:26.896Z,96.44
2016-09-03T05:20:33.171Z,96.45
2016-09-03T05:21:53.627Z,96.37
2016-09-03T05:22:39.709Z,96.38
2016-09-03T05:23:28.588Z,96.13
2016-09-03T05:24:36.157Z,96.16
2016-09-03T05:25:28.225Z,96.00
2016-09-03T05:26:25.210Z,96.20
2016-09-03T05:27:33.546Z,96.09
2016-09-03T05:28:31.204Z,95.81
2016-09-03T05:29:25.222Z,95.51
2016-09-03T05:30:29.214Z,95.66
2016-09-03T05:31:29.698Z,95.59
2016-09-03T05:32:35.200Z,95.42
2016-09-03T05:33:37.702Z,95.26
2016-09-03T05:34:33.844Z,95.33
2016-09-03T05:35:38.608Z,95.24
2016-09-03T05:36:27.152Z,95.18
2016-09-03T05:37:21.694Z,95.50
2016-09-03T05:38:39.136Z,95.33
2016-09-03T05:39:38.484Z,95.43
2016-09-03T05:40:37.637Z,95.31
2016-09-03T05:41:31.530Z,95.38
2016-09-03T05:42:32.439Z,95.48
2016-09-03T05:43:25.413Z,95.23
2016-09-03T05:44:32.467Z,94.89
2016-09-03T05:45:31.879Z,94.85
2016-09-03T05:46:33.618Z,94.92
2016-09-03T05:47:25.709Z,94.87
2016-09-03T05:48:34.245Z,94.90
2016-09-03T05:49:33.710Z,94.83
2016-09-03T05:50:39.180Z,94.95
2016-09-03T05:51:23.588Z,94.60
2016-09-03T05:52:39.001Z,94.87
2016-09-03T05:53:27.956Z,94.02
2016-09-03T05:54:25.062Z,94.31
2016-09-03T05:55:23.492Z,94.71
2016-09-03T05:56:27.384Z,94.93
2016-09-03T05:57:24.954Z,95.04
2016-09-03T05:58:32.068Z,94.61
2016-09-03T05:59:19.011Z,94.67
2016-09-03T06:00:38.781Z,95.00
2016-09-03T06:01:24.854Z,94.76
2016-09-03T06:02:33.447Z,94.65
2016-09-03T06:03:23.480Z,94.42
2016-09-03T06:04:25.714Z,94.45
2016-09-03T06:05:34.946Z,94.07
2016-09-03T06:06:28.411Z,94.56
2016-09-03T06:07:23.414Z,94.61
2016-09-03T06:08:33.864Z,94.70
2016-09-03T06:09:41.141Z,94.42
2016-09-03T06:10:35.242Z,94.10
2016-09-03T06:12:11.336Z,93.36
2016-09-03T06:12:33.222Z,92.99
2016-09-03T06:13:38.839Z,93.17
2016-09-03T06:14:24.264Z,93.69
2016-09-03T06:15:34.415Z,93.34
2016-09-03T06:16:25.265Z,93.01
2016-09-03T06:17:27.699Z,92.75
2016-09-03T06:18:33.154Z,92.68
2016-09-03T06:19:38.969Z,92.21
2016-09-03T06:20:29.575Z,92.40
2016-09-03T06:21:33.616Z,92.49
2016-09-03T06:22:34.238Z,92.35
2016-09-03T06:24:33.573Z,91.97
2016-09-03T06:25:31.074Z,91.40
2016-09-03T06:26:33.252Z,91.46
2016-09-03T06:27:26.852Z,91.11
2016-09-03T06:28:17.527Z,90.94
2016-09-03T06:29:24.223Z,90.90
2016-09-03T06:30:38.726Z,90.55
2016-09-03T06:31:33.612Z,90.77
2016-09-03T06:32:34.327Z,90.09
2016-09-03T06:33:22.772Z,90.08
2016-09-03T06:34:39.679Z,90.35
2016-09-03T06:35:31.001Z,90.74
2016-09-03T06:36:32.843Z,89.63
2016-09-03T06:37:38.882Z,90.02
2016-09-03T06:38:30.078Z,89.97
2016-09-03T06:39:39.998Z,89.27
2016-09-03T06:40:25.543Z,89.09
2016-09-03T06:42:09.750Z,89.47
2016-09-03T06:42:45.835Z,89.73
2016-09-03T06:43:33.002Z,88.58
2016-09-03T06:44:22.768Z,88.60
2016-09-03T06:45:31.468Z,88.61
2016-09-03T06:46:38.915Z,88.82
2016-09-03T06:47:28.544Z,88.81
2016-09-03T06:48:23.372Z,88.18
2016-09-03T06:49:33.176Z,87.79
2016-09-03T06:50:32.439Z,88.36
2016-09-03T06:51:18.246Z,88.22
2016-09-03T06:52:18.442Z,88.34
2016-09-03T06:53:27.423Z,88.59
2016-09-03T06:54:33.918Z,88.66
2016-09-03T06:55:24.453Z,88.73
2016-09-03T06:56:33.703Z,88.66
2016-09-03T06:57:31.724Z,88.27
2016-09-03T06:58:27.386Z,88.16
2016-09-03T06:59:28.975Z,87.70
2016-09-03T07:00:23.462Z,87.77
2016-09-03T07:01:22.652Z,87.33
2016-09-03T07:02:23.930Z,87.20
2016-09-03T07:03:18.616Z,87.58
2016-09-03T07:04:17.779Z,87.42
2016-09-03T07:05:23.786Z,87.67
2016-09-03T07:06:29.853Z,87.38
2016-09-03T07:07:19.446Z,86.67
2016-09-03T07:08:19.466Z,86.18
2016-09-03T07:09:28.526Z,86.24
2016-09-03T07:10:29.937Z,84.62
2016-09-03T07:11:23.004Z,84.87
2016-09-03T07:12:33.686Z,84.98
2016-09-03T07:13:23.995Z,83.90
2016-09-03T07:14:22.876Z,82.82
2016-09-03T07:15:23.528Z,83.51
2016-09-03T07:16:38.488Z,83.88
2016-09-03T07:18:24.135Z,84.43
2016-09-03T07:19:40.716Z,84.20
2016-09-03T07:20:32.542Z,84.27
2016-09-03T07:21:37.577Z,83.78
2016-09-03T07:24:12.558Z,82.92
2016-09-03T07:24:28.195Z,82.77
2016-09-03T07:25:23.872Z,83.04
2016-09-03T07:26:23.847Z,83.33
2016-09-03T07:27:31.143Z,81.26
2016-09-03T07:28:27.551Z,81.13
2016-09-03T07:29:23.986Z,80.16
2016-09-03T07:30:22.923Z,78.91
2016-09-03T07:31:35.022Z,78.74
2016-09-03T07:32:28.688Z,76.93
2016-09-03T07:33:24.487Z,77.54
2016-09-03T07:34:32.077Z,78.26
2016-09-03T07:35:32.615Z,78.66
2016-09-03T07:36:39.044Z,78.68
2016-09-03T07:37:35.063Z,77.88
2016-09-03T07:38:18.792Z,78.13
2016-09-03T07:39:24.316Z,78.40
2016-09-03T07:40:24.296Z,78.16
2016-09-03T07:41:17.592Z,78.39
2016-09-03T07:42:24.544Z,78.23
2016-09-03T07:43:24.977Z,78.47
2016-09-03T07:44:25.579Z,78.14
2016-09-03T07:45:29.256Z,76.96
2016-09-03T07:46:21.688Z,76.25
2016-09-03T07:47:23.342Z,76.26
2016-09-03T07:48:25.856Z,75.39
2016-09-03T07:49:22.598Z,74.68
2016-09-03T07:50:23.340Z,73.90
2016-09-03T07:51:39.908Z,73.72
2016-09-03T07:52:38.600Z,73.92
2016-09-03T07:53:23.391Z,72.33
2016-09-03T07:54:24.780Z,70.56
2016-09-03T07:55:19.940Z,70.62
2016-09-03T07:56:22.925Z,71.12
2016-09-03T07:57:33.008Z,70.57
2016-09-03T07:58:32.759Z,70.71
2016-09-03T07:59:24.514Z,70.88
2016-09-03T08:00:39.055Z,71.73
2016-09-03T08:01:23.656Z,71.82
2016-09-03T08:02:27.694Z,72.24
2016-09-03T08:03:25.742Z,71.96
2016-09-03T08:04:31.967Z,72.22
2016-09-03T08:05:23.346Z,71.64
2016-09-03T08:06:33.630Z,72.29
2016-09-03T08:07:33.407Z,72.32
2016-09-03T08:08:24.803Z,71.00
2016-09-03T08:09:30.269Z,71.14
2016-09-03T08:10:29.095Z,71.05
2016-09-03T08:11:22.693Z,70.47
2016-09-03T08:12:34.882Z,70.13
2016-09-03T08:14:24.805Z,71.23
2016-09-03T08:15:23.413Z,70.02
2016-09-03T08:16:31.962Z,70.39
2016-09-03T08:17:29.183Z,70.52
2016-09-03T08:18:30.365Z,69.51
2016-09-03T08:19:28.315Z,69.96
2016-09-03T08:20:33.969Z,69.83
2016-09-03T08:21:29.162Z,70.25
2016-09-03T08:22:26.684Z,70.71
2016-09-03T08:23:28.036Z,70.56
2016-09-03T08:24:29.112Z,70.42
2016-09-03T08:25:32.767Z,70.58
2016-09-03T08:26:34.076Z,69.85
2016-09-03T08:27:33.346Z,69.33
2016-09-03T08:28:35.672Z,69.48
2016-09-03T08:29:33.800Z,69.76
2016-09-03T08:30:33.938Z,69.06
2016-09-03T08:31:28.746Z,69.11
2016-09-03T08:32:35.034Z,68.54
2016-09-03T08:33:33.125Z,68.57
2016-09-03T08:35:09.540Z,68.82
2016-09-03T08:35:33.613Z,68.51
2016-09-03T08:36:23.660Z,67.98
2016-09-03T08:37:29.500Z,67.79
2016-09-03T08:38:36.914Z,67.68
2016-09-03T08:39:35.052Z,67.95
2016-09-03T08:40:30.128Z,68.21
2016-09-03T08:41:23.985Z,68.13
2016-09-03T08:42:23.975Z,68.34
2016-09-03T08:43:24.726Z,68.41
2016-09-03T08:44:28.928Z,66.35
2016-09-03T08:45:24.674Z,66.33
2016-09-03T08:46:29.459Z,66.62
2016-09-03T08:47:33.224Z,66.77
2016-09-03T08:48:37.186Z,66.14
2016-09-03T08:49:26.931Z,66.03
2016-09-03T08:50:22.831Z,66.74
2016-09-03T08:51:40.061Z,66.08
2016-09-03T08:52:28.592Z,65.85
2016-09-03T08:53:32.032Z,66.29
2016-09-03T08:54:33.587Z,66.15
2016-09-03T08:55:23.578Z,66.31
2016-09-03T08:56:25.454Z,66.25
2016-09-03T08:57:24.123Z,66.44
2016-09-03T08:58:28.153Z,64.92
2016-09-03T08:59:18.240Z,65.31
2016-09-03T09:00:41.024Z,66.01
2016-09-03T09:01:28.542Z,65.60
2016-09-03T09:02:39.552Z,64.52
2016-09-03T09:03:24.428Z,64.41
2016-09-03T09:04:29.284Z,63.81
2016-09-03T09:05:25.702Z,62.60
2016-09-03T09:06:28.418Z,62.90
2016-09-03T09:07:43.155Z,63.20
2016-09-03T09:08:33.579Z,63.53
2016-09-03T09:09:38.424Z,63.32
2016-09-03T09:10:40.187Z,63.24
2016-09-03T09:11:30.674Z,62.51
2016-09-03T09:12:24.731Z,62.51
2016-09-03T09:13:29.594Z,62.60
2016-09-03T09:14:23.721Z,61.63
2016-09-03T09:15:40.073Z,62.47
2016-09-03T09:16:34.932Z,62.81
2016-09-03T09:17:34.116Z,63.00
2016-09-03T09:18:33.097Z,62.48
2016-09-03T09:19:23.169Z,62.03
2016-09-03T09:20:27.194Z,62.47
2016-09-03T09:21:28.554Z,62.57
2016-09-03T09:22:29.153Z,62.69
2016-09-03T09:23:33.845Z,62.74
2016-09-03T09:24:38.950Z,62.87
2016-09-03T09:25:24.156Z,61.15
2016-09-03T09:26:32.217Z,62.17
2016-09-03T09:27:32.611Z,62.17
2016-09-03T09:28:43.435Z,62.73
2016-09-03T09:29:21.905Z,62.62
2016-09-03T09:30:38.686Z,62.87
2016-09-03T09:31:34.634Z,63.58
2016-09-03T09:32:37.784Z,63.97
2016-09-03T09:33:28.288Z,64.35
2016-09-03T09:34:38.558Z,64.09
2016-09-03T09:35:28.755Z,64.25
2016-09-03T09:36:29.505Z,64.34
2016-09-03T09:37:28.728Z,64.15
2016-09-03T09:38:28.579Z,63.28
2016-09-03T09:39:39.107Z,63.53
2016-09-03T09:40:32.611Z,63.38
2016-09-03T09:41:30.307Z,63.41
2016-09-03T09:42:25.917Z,63.32
2016-09-03T09:43:38.603Z,63.24
2016-09-03T09:44:24.685Z,63.12
2016-09-03T09:45:27.599Z,62.26
2016-09-03T09:46:23.669Z,62.25
2016-09-03T09:47:17.421Z,62.13
2016-09-03T09:48:38.389Z,62.87
2016-09-03T09:49:28.755Z,62.26
2016-09-03T09:50:34.984Z,62.38
2016-09-03T09:51:31.039Z,62.00
2016-09-03T09:52:24.183Z,62.06
2016-09-03T09:53:39.565Z,62.33
2016-09-03T09:54:33.771Z,62.46
2016-09-03T09:55:24.796Z,60.98
2016-09-03T09:56:32.299Z,62.16
2016-09-03T09:57:25.166Z,61.22
2016-09-03T09:58:28.208Z,61.67
2016-09-03T09:59:24.929Z,62.15
2016-09-03T10:00:23.728Z,61.75
2016-09-03T10:01:29.656Z,62.07
2016-09-03T10:02:34.324Z,61.50
2016-09-03T10:03:23.256Z,60.56
2016-09-03T10:04:33.749Z,60.73
2016-09-03T10:06:43.779Z,60.81
2016-09-03T10:07:23.213Z,60.99
2016-09-03T10:08:32.378Z,60.77
2016-09-03T10:09:33.470Z,60.11
2016-09-03T10:10:26.003Z,60.66
2016-09-03T10:11:18.393Z,60.61
2016-09-03T10:12:25.743Z,61.08
2016-09-03T10:13:23.839Z,61.35
2016-09-03T10:14:34.387Z,61.17
2016-09-03T10:15:22.608Z,60.73
2016-09-03T10:16:23.870Z,60.40
2016-09-03T10:17:29.280Z,60.42
2016-09-03T10:18:24.826Z,61.13
2016-09-03T10:19:23.478Z,60.94
2016-09-03T10:20:27.853Z,61.04
2016-09-03T10:21:24.954Z,60.86
2016-09-03T10:22:44.979Z,60.78
2016-09-03T10:23:37.851Z,61.56
2016-09-03T10:24:28.590Z,61.01
2016-09-03T10:25:24.397Z,61.44
2016-09-03T10:26:26.220Z,62.25
2016-09-03T10:27:28.312Z,62.61
2016-09-03T10:28:34.983Z,62.71
2016-09-03T10:29:40.604Z,63.05
2016-09-03T10:30:27.777Z,63.07
2016-09-03T10:31:23.432Z,62.02
2016-09-03T10:32:17.903Z,62.79
2016-09-03T10:33:21.979Z,62.73
2016-09-03T10:35:24.734Z,62.61
2016-09-03T10:36:29.860Z,62.78
2016-09-03T10:37:26.427Z,63.45
2016-09-03T10:38:35.082Z,62.34
2016-09-03T10:39:22.989Z,63.42
2016-09-03T10:40:29.099Z,63.32
2016-09-03T10:41:32.291Z,62.72
2016-09-03T10:42:30.358Z,63.00
2016-09-03T10:43:35.194Z,64.46
2016-09-03T10:45:25.716Z,63.34
2016-09-03T10:46:25.154Z,63.56
2016-09-03T10:47:35.997Z,64.72
2016-09-03T10:48:20.252Z,65.15
2016-09-03T10:49:22.936Z,64.26
2016-09-03T10:51:48.309Z,64.26
2016-09-03T10:52:13.016Z,64.27
2016-09-03T10:53:11.436Z,64.16
2016-09-03T10:54:13.588Z,64.02
2016-09-03T10:55:26.221Z,64.77
2016-09-03T10:56:26.925Z,64.19
2016-09-03T10:57:32.417Z,63.99
2016-09-03T10:58:28.744Z,63.89
2016-09-03T10:59:33.285Z,63.77
2016-09-03T11:00:21.799Z,64.34
2016-09-03T11:01:25.267Z,64.76
2016-09-03T11:02:24.007Z,65.27
2016-09-03T11:03:33.822Z,64.74
2016-09-03T11:04:28.091Z,65.04
2016-09-03T11:05:24.230Z,64.64
2016-09-03T11:06:34.370Z,64.58
2016-09-03T11:07:18.182Z,64.44
2016-09-03T11:09:25.969Z,64.00
2016-09-03T11:10:22.050Z,64.67
2016-09-03T11:11:26.039Z,63.71
2016-09-03T11:12:22.459Z,63.78
2016-09-03T11:13:24.900Z,63.64
2016-09-03T11:14:27.755Z,63.83
2016-09-03T11:15:23.549Z,63.68
2016-09-03T11:16:29.934Z,63.74
2016-09-03T11:17:22.740Z,64.59
2016-09-03T11:18:26.570Z,63.82
2016-09-03T11:19:25.170Z,63.22
2016-09-03T11:20:22.959Z,63.53
2016-09-03T11:21:25.187Z,63.75
2016-09-03T11:22:28.691Z,63.66
2016-09-03T11:23:38.891Z,63.53
2016-09-03T11:24:31.682Z,62.95
2016-09-03T11:25:29.642Z,63.32
2016-09-03T11:26:31.322Z,63.10
2016-09-03T11:27:27.335Z,63.07
2016-09-03T11:28:24.934Z,63.54
2016-09-03T11:29:34.393Z,62.01
2016-09-03T11:30:34.725Z,62.59
2016-09-03T11:31:22.902Z,63.37
2016-09-03T11:33:29.920Z,63.33
2016-09-03T11:34:32.200Z,62.37
2016-09-03T11:35:24.224Z,62.50
2016-09-03T11:36:24.289Z,62.25
2016-09-03T11:37:24.407Z,62.56
2016-09-03T11:38:24.445Z,62.81
2016-09-03T11:39:29.722Z,62.24
2016-09-03T11:40:24.158Z,61.92
2016-09-03T11:41:25.495Z,62.08
2016-09-03T11:42:23.984Z,62.14
2016-09-03T11:44:25.026Z,61.74
2016-09-03T11:45:28.629Z,62.28
2016-09-03T11:46:23.650Z,62.53
2016-09-03T11:47:32.679Z,62.86
2016-09-03T11:48:24.659Z,62.19
2016-09-03T11:49:26.213Z,61.62
2016-09-03T11:50:30.052Z,61.54
2016-09-03T11:51:32.520Z,61.89
2016-09-03T11:52:28.731Z,61.52
2016-09-03T11:53:28.958Z,61.26
2016-09-03T11:54:23.704Z,61.60
2016-09-03T11:55:34.598Z,61.84
2016-09-03T11:56:21.076Z,61.96
2016-09-03T11:57:25.167Z,61.89
2016-09-03T11:58:24.702Z,61.58
2016-09-03T11:59:34.073Z,61.71
2016-09-03T12:00:37.055Z,61.81
2016-09-03T12:01:26.615Z,63.27
2016-09-03T12:02:39.250Z,61.94
2016-09-03T12:03:35.597Z,59.98
2016-09-03T12:04:29.307Z,60.29
2016-09-03T12:06:24.148Z,60.21
2016-09-03T12:07:33.606Z,59.47
2016-09-03T12:08:29.038Z,60.13
2016-09-03T12:09:23.946Z,60.12
2016-09-03T12:10:30.332Z,60.55
2016-09-03T12:11:32.215Z,60.50
2016-09-03T12:12:26.972Z,60.49
2016-09-03T12:13:32.091Z,60.48
2016-09-03T12:14:31.345Z,61.11
2016-09-03T12:15:37.118Z,60.82
2016-09-03T12:16:31.127Z,59.88
2016-09-03T12:17:25.038Z,60.99
2016-09-03T12:18:33.646Z,61.24
2016-09-03T12:19:25.875Z,61.89
2016-09-03T12:20:40.401Z,58.83
2016-09-03T12:23:27.494Z,56.72
2016-09-03T12:24:40.945Z,56.34
2016-09-03T12:25:32.635Z,56.39
2016-09-03T12:26:32.154Z,55.36
2016-09-03T12:27:32.372Z,54.05
2016-09-03T12:28:25.564Z,55.18
2016-09-03T12:29:38.324Z,55.23
2016-09-03T12:30:26.728Z,55.25
2016-09-03T12:31:51.114Z,56.15
2016-09-03T12:32:27.331Z,56.47
2016-09-03T12:33:29.799Z,56.78
2016-09-03T12:34:34.075Z,57.94
2016-09-03T12:35:33.457Z,57.38
2016-09-03T12:36:32.598Z,56.85
2016-09-03T12:37:31.172Z,56.97
2016-09-03T12:38:25.016Z,57.25
2016-09-03T12:39:28.206Z,57.81
2016-09-03T12:40:33.009Z,57.87
2016-09-03T12:41:16.117Z,57.57
2016-09-03T12:42:28.359Z,57.90
2016-09-03T12:43:31.548Z,55.93
2016-09-03T12:44:41.177Z,56.59
2016-09-03T12:45:38.837Z,56.98
2016-09-03T12:46:32.925Z,56.75
2016-09-03T12:47:29.458Z,56.41
2016-09-03T12:48:32.180Z,56.54
2016-09-03T12:49:17.497Z,56.71
2016-09-03T12:50:34.171Z,56.01
2016-09-03T12:51:25.018Z,55.59
2016-09-03T12:52:31.553Z,54.07
2016-09-03T12:54:39.147Z,53.40
2016-09-03T12:56:29.775Z,53.67
2016-09-03T12:57:29.245Z,52.74
2016-09-03T12:58:29.801Z,51.93
2016-09-03T12:59:54.142Z,51.16
2016-09-03T13:00:25.187Z,51.71
2016-09-03T13:01:33.043Z,53.23
2016-09-03T13:02:30.472Z,51.98
2016-09-03T13:03:23.001Z,54.48
2016-09-03T13:04:27.772Z,51.75
2016-09-03T13:05:32.454Z,51.25
2016-09-03T13:06:24.195Z,51.35
2016-09-03T13:07:17.489Z,50.86
2016-09-03T13:08:17.640Z,51.46
2016-09-03T13:09:13.833Z,50.73
2016-09-03T13:10:19.827Z,50.21